Tuesday, January 22, 2019, 4:02 PM EST
Back to Local

KBED, Bedford Hanscom Field

Location: Concord, MA, United States Lat: 42.467
Local Time: 4:02 PM EST (21:02 GMT) Lon: -71.3
Time Zone: US/Eastern Elev: 134 ft

Show me the last for .
Show Decoded

2019-01-22 14:56 METAR KBED 221956Z 32012KT 10SM CLR M03/M22 A3050 RMK AO2 UPE00 SLP348 T10281222
                 PNO =
2019-01-22 13:56 METAR KBED 221856Z 31013G20KT 10SM UP CLR M03/M22 A3049 RMK AO2 UPB55 SLP344
                 T10331217 PNO =
2019-01-22 12:56 METAR KBED 221756Z 31012KT 10SM CLR M04/M23 A3049 RMK AO2 SLP342 6//// T10441228
                 11044 21156 58006 PNO =
2019-01-22 11:56 METAR KBED 221656Z 30013G16KT 10SM CLR M06/M24 A3051 RMK AO2 UPB18E32 SLP349
                 T10611239 PNO =
2019-01-22 10:56 METAR KBED 221556Z 28007KT 10SM CLR M08/M23 A3051 RMK AO2 UPE13 SLP351 T10781228
                 PNO =
2019-01-22 09:56 METAR KBED 221456Z 27007KT 10SM UP CLR M11/M23 A3050 RMK AO2 UPB55 SLP350 6////
                 T11061228 51029 PNO =
2019-01-22 08:56 METAR KBED 221356Z 27006KT 10SM BLSN CLR M13/M23 A3048 RMK AO2 SLP340 T11281233
                 PNO =
2019-01-22 07:56 METAR KBED 221256Z 27010KT 10SM BLSN CLR M14/M24 A3045 RMK AO2 SLP332 T11441244
                 PNO =
2019-01-22 06:56 METAR KBED 221156Z 24004KT 10SM BLSN CLR M16/M25 A3042 RMK AO2 SLP320 6////
                 7//// T11561250 11139 21156 51050 PNO =
2019-01-22 05:56 METAR KBED 221056Z AUTO 27005KT 10SM BLSN CLR M14/M25 A3037 RMK AO2 SLP303
                 T11441250 PNO =
2019-01-22 04:56 METAR KBED 220956Z AUTO 30007KT 10SM BLSN CLR M14/M25 A3032 RMK AO2 SLP287
                 T11441250 PNO =
2019-01-22 03:56 METAR KBED 220856Z AUTO 30013KT 10SM BLSN CLR M15/M25 A3027 RMK AO2 SLP269 6////
                 T11501250 53034 PNO =
2019-01-22 02:56 METAR KBED 220756Z AUTO 31012G23KT 10SM BLSN CLR M14/M25 A3024 RMK AO2 SLP259
                 T11441250 PNO =
2019-01-22 01:56 METAR KBED 220656Z AUTO 31016G23KT 10SM BLSN CLR M14/M26 A3019 RMK AO2 SLP243
                 T11441256 PNO =
2019-01-22 00:56 METAR KBED 220556Z AUTO 31016G27KT 10SM BLSN CLR M15/M26 A3017 RMK AO2 PK WND
                 32027/0551 SLP235 6//// T11501256 11150 21156 51028 PNO =
2019-01-21 23:56 METAR KBED 220456Z AUTO 30015G21KT 10SM BLSN CLR M15/M25 A3014 RMK AO2 PK WND
                 31027/0359 SLP227 T11501250 411441172 PNO =
2019-01-21 22:56 METAR KBED 220356Z AUTO 30013G21KT 10SM BLSN OVC080 M15/M24 A3012 RMK AO2 PK WND
                 30028/0346 SLP219 T11501244 PNO =
2019-01-21 21:56 METAR KBED 220256Z 31013G22KT 270V340 10SM BLSN OVC060 M15/M24 A3008 RMK AO2
                 SLP206 6//// T11501239 51022 PNO =
2019-01-21 20:56 METAR KBED 220156Z 31012G24KT 4SM BLSN BKN055 OVC070 M15/M23 A3006 RMK AO2 PK
                 WND 30030/0114 SNE23 SLP198 T11501233 PNO =
2019-01-21 20:51 METAR KBED 220151Z 32016G27KT 6SM BLSN OVC050 M15/M23 A3006 RMK AO2 PK WND
                 30030/0114 SNE23 PNO =
2019-01-21 19:56 METAR KBED 220056Z 30017G27KT 1 1/2SM -SN BLSN OVC031 M16/M21 A3002 RMK AO2 PK
                 WND 32027/0020 SLP186 T11561211 PNO =
2019-01-21 19:11 METAR KBED 220011Z 31015G25KT 1 1/2SM -SN BLSN OVC026 M16/M21 A2999 RMK AO2
                 T11561206 PNO =
2019-01-21 18:56 METAR KBED 212356Z 30012G22KT 2SM -SN BLSN OVC024 M16/M21 A2998 RMK AO2 PK WND
                 31026/2302 SLP174 6//// T11561206 11150 21156 53040 PNO =
2019-01-21 18:46 METAR KBED 212346Z 30015G23KT 1 1/2SM -SN BLSN OVC024 M16/M21 A2998 RMK AO2 PK
                 WND 31026/2302 T11561206 PNO =
2019-01-21 18:37 METAR KBED 212337Z 30014KT 2SM -SN BLSN OVC026 M16/M21 A2997 RMK AO2 PK WND
                 31026/2302 T11561206 PNO =
2019-01-21 18:29 METAR KBED 212329Z 30013G24KT 1 3/4SM -SN BLSN OVC030 M16/M21 A2997 RMK AO2 PK
                 WND 31026/2302 T11561211 PNO =
2019-01-21 17:56 METAR KBED 212256Z 31016G23KT 2 1/2SM -SN BLSN OVC035 M16/M22 A2994 RMK AO2 PK
                 WND 29028/2203 SLP161 T11561222 PNO =
2019-01-21 16:56 METAR KBED 212156Z 30018G23KT 2SM -SN BLSN OVC030 M16/M22 A2990 RMK AO2 PK WND
                 30027/2137 SNB24 SLP145 T11561222 PNO =
2019-01-21 16:51 METAR KBED 212151Z 31015G27KT 1 3/4SM -SN BLSN OVC032 M16/M23 A2990 RMK AO2 PK
                 WND 30027/2137 SNB24 PNO =

Support USWX by starting your Amazon purchase here.